Time;durP1;ratioP1;P1;durP2;ratioP2;P2;SDS_P1;SDS_P2;PMS_P1;PMS_P2;Temp;Humidity;BMP_temperature;BMP_pressure;BME280_temperature;BME280_humidity;BME280_pressure;Samples;Min_cycle;Max_cycle;Signal;HPM_P1;HPM_P2
2022/07/08 00:01:57;;;;;;;2.72;2.58;;;23.90;94.50;;;;;;5133880;28;20019;-78
2022/07/08 00:04:23;;;;;;;3.05;2.75;;;23.80;94.80;;;;;;5133687;28;20031;-78
2022/07/08 00:06:49;;;;;;;2.80;2.67;;;23.80;94.90;;;;;;5133625;28;20050;-77
2022/07/08 00:09:15;;;;;;;2.95;2.67;;;23.70;95.00;;;;;;5133840;28;20019;-78
2022/07/08 00:11:41;;;;;;;3.13;2.92;;;23.70;95.10;;;;;;5133704;28;20110;-77
2022/07/08 00:14:08;;;;;;;3.17;2.85;;;23.60;95.10;;;;;;5133562;28;20572;-78
2022/07/08 00:16:34;;;;;;;2.95;2.75;;;23.60;95.10;;;;;;5133707;28;20057;-78
2022/07/08 00:19:01;;;;;;;3.05;2.75;;;23.60;95.10;;;;;;5133574;28;20455;-77
2022/07/08 00:21:26;;;;;;;3.00;2.90;;;23.60;94.80;;;;;;5133427;28;20023;-78
2022/07/08 00:23:52;;;;;;;3.55;2.67;;;23.60;95.00;;;;;;5114996;28;20453;-78
2022/07/08 00:26:18;;;;;;;2.95;2.63;;;23.60;95.40;;;;;;5134549;27;20057;-78
2022/07/08 00:28:44;;;;;;;2.90;2.72;;;23.70;95.00;;;;;;5137704;27;20076;-79
2022/07/08 00:31:10;;;;;;;2.92;2.72;;;23.60;94.90;;;;;;5137519;27;20046;-79
2022/07/08 00:33:36;;;;;;;2.90;2.70;;;23.70;95.00;;;;;;5137426;27;20030;-79
2022/07/08 00:36:02;;;;;;;2.83;2.67;;;23.70;94.80;;;;;;5137443;27;20024;-78
2022/07/08 00:38:27;;;;;;;3.10;3.00;;;23.80;94.70;;;;;;5137381;27;20023;-79
2022/07/08 00:40:53;;;;;;;2.83;2.72;;;23.80;94.40;;;;;;5137070;27;20044;-79
2022/07/08 00:43:39;;;;;;;2.40;2.30;;;23.80;94.30;;;;;;5137293;27;20026;-79
2022/07/08 00:46:06;;;;;;;4.28;2.58;;;23.90;94.30;;;;;;5137210;27;20478;-77
2022/07/08 00:48:32;;;;;;;3.13;2.92;;;23.70;94.40;;;;;;5137166;27;20027;-78
2022/07/08 00:51:02;;;;;;;2.58;2.42;;;23.70;94.50;;;;;;5137101;27;20020;-78
2022/07/08 00:53:29;;;;;;;3.00;2.58;;;23.70;94.60;;;;;;5136966;27;20027;-79
2022/07/08 00:55:56;;;;;;;3.65;2.70;;;23.70;94.60;;;;;;5137087;27;20064;-78
2022/07/08 00:58:23;;;;;;;3.85;2.88;;;23.60;94.80;;;;;;5137080;27;20019;-79
2022/07/08 01:00:50;;;;;;;2.80;2.60;;;23.60;94.60;;;;;;5137032;27;20084;-77
2022/07/08 01:03:16;;;;;;;2.58;2.42;;;23.60;94.70;;;;;;5136813;27;20088;-78
2022/07/08 01:05:41;;;;;;;2.88;2.78;;;23.50;94.80;;;;;;5136767;27;20027;-78
2022/07/08 01:08:07;;;;;;;2.92;2.83;;;23.40;94.90;;;;;;5136800;27;20016;-78
2022/07/08 01:10:33;;;;;;;2.60;2.50;;;23.30;95.40;;;;;;5136741;27;20445;-79
2022/07/08 01:12:59;;;;;;;2.53;2.42;;;23.30;95.20;;;;;;5118250;27;20011;-78
2022/07/08 01:15:25;;;;;;;3.80;2.90;;;23.30;95.30;;;;;;5118187;27;20114;-78
2022/07/08 01:17:51;;;;;;;2.92;2.72;;;23.30;95.30;;;;;;5136729;27;20036;-79
2022/07/08 01:20:17;;;;;;;2.55;2.45;;;23.30;95.20;;;;;;5136546;27;20031;-79
2022/07/08 01:22:43;;;;;;;3.17;2.40;;;23.30;95.10;;;;;;5136366;27;20027;-79
2022/07/08 01:25:10;;;;;;;2.03;1.98;;;23.10;95.30;;;;;;5136339;27;20091;-79
2022/07/08 01:27:36;;;;;;;2.53;2.40;;;23.10;95.50;;;;;;5117898;27;20027;-78
2022/07/08 01:30:03;;;;;;;2.97;2.30;;;23.10;95.30;;;;;;5136415;27;20019;-77
2022/07/08 01:32:33;;;;;;;2.95;2.75;;;23.20;95.20;;;;;;5136314;27;20046;-78
2022/07/08 01:34:59;;;;;;;2.67;2.22;;;23.20;95.10;;;;;;5136034;27;20389;-78
2022/07/08 01:37:28;;;;;;;2.10;2.00;;;23.10;94.70;;;;;;5135764;27;20023;-79
2022/07/08 01:39:54;;;;;;;2.30;2.15;;;23.20;94.70;;;;;;5136245;27;20019;-77
2022/07/08 01:42:21;;;;;;;2.13;2.03;;;23.20;94.40;;;;;;5117641;27;20084;-77
2022/07/08 01:44:46;;;;;;;2.22;2.13;;;23.20;94.50;;;;;;5135959;27;20023;-78
2022/07/08 01:47:12;;;;;;;2.22;2.13;;;23.10;94.70;;;;;;5136003;27;20431;-79
2022/07/08 01:49:38;;;;;;;2.42;2.17;;;23.10;94.70;;;;;;5136088;27;20027;-78
2022/07/08 01:52:05;;;;;;;4.47;2.28;;;23.10;94.60;;;;;;5117547;27;20729;-79
2022/07/08 01:54:32;;;;;;;2.38;2.28;;;23.10;94.60;;;;;;5135898;27;20102;-78
2022/07/08 01:57:16;;;;;;;2.20;2.10;;;23.10;94.60;;;;;;5135858;27;20034;-78
2022/07/08 01:59:42;;;;;;;2.55;2.40;;;23.10;94.60;;;;;;5117366;27;20023;-78
2022/07/08 02:02:09;;;;;;;2.10;2.00;;;23.10;94.40;;;;;;5135682;27;20554;-79
2022/07/08 02:04:35;;;;;;;2.30;2.20;;;23.10;94.30;;;;;;5135666;27;20528;-78
2022/07/08 02:07:01;;;;;;;2.33;2.13;;;23.00;94.40;;;;;;5117254;27;20114;-78
2022/07/08 02:09:31;;;;;;;2.20;2.10;;;22.90;94.70;;;;;;5117246;27;20347;-78
2022/07/08 02:14:41;;;;;;;2.03;1.92;;;22.80;95.20;;;;;;5135700;27;20116;-78
2022/07/08 02:17:08;;;;;;;2.15;2.05;;;22.80;94.80;;;;;;5135491;27;20029;-78
2022/07/08 02:19:34;;;;;;;2.28;2.17;;;22.80;94.70;;;;;;5135497;27;20047;-79
2022/07/08 02:22:00;;;;;;;2.05;1.90;;;22.70;94.60;;;;;;5135427;27;20056;-77
2022/07/08 02:24:26;;;;;;;2.15;2.05;;;22.80;94.50;;;;;;5135208;27;20023;-78
2022/07/08 02:26:52;;;;;;;2.22;2.13;;;22.70;94.50;;;;;;5116911;27;20106;-78
2022/07/08 02:29:18;;;;;;;2.42;2.22;;;22.70;94.60;;;;;;5135165;27;20488;-77
2022/07/08 02:31:44;;;;;;;2.30;2.10;;;22.70;94.50;;;;;;5135336;27;20042;-77
2022/07/08 02:34:10;;;;;;;1.83;1.75;;;22.60;94.50;;;;;;5135058;27;20031;-77
2022/07/08 02:36:36;;;;;;;2.35;2.25;;;22.50;94.60;;;;;;5135218;27;20020;-78
2022/07/08 02:39:03;;;;;;;4.60;2.20;;;22.50;94.60;;;;;;5135132;27;20027;-78
2022/07/08 02:41:29;;;;;;;2.05;1.95;;;22.50;94.60;;;;;;5116425;27;20418;-77
2022/07/08 02:43:55;;;;;;;1.60;1.60;;;22.40;94.60;;;;;;5134666;27;20040;-77
2022/07/08 02:46:21;;;;;;;1.85;1.75;;;22.40;94.40;;;;;;5116515;27;20019;-78
2022/07/08 02:48:47;;;;;;;1.92;1.83;;;22.40;94.20;;;;;;5116030;28;20366;-78
2022/07/08 02:51:12;;;;;;;2.10;2.00;;;22.40;94.10;;;;;;5134835;27;20385;-77
2022/07/08 02:53:38;;;;;;;2.30;1.67;;;22.50;94.00;;;;;;5134700;27;20027;-78
2022/07/08 02:56:04;;;;;;;2.00;1.90;;;22.40;94.10;;;;;;5134784;27;20027;-77
2022/07/08 02:58:30;;;;;;;1.73;1.73;;;22.30;94.20;;;;;;5134512;27;20027;-77
2022/07/08 03:00:56;;;;;;;1.67;1.58;;;22.30;94.10;;;;;;5116223;27;20379;-76
2022/07/08 03:03:22;;;;;;;1.60;1.52;;;22.30;93.80;;;;;;5116150;27;20019;-77
2022/07/08 03:05:47;;;;;;;1.50;1.40;;;22.20;93.50;;;;;;5134456;27;20981;-77
2022/07/08 03:08:13;;;;;;;1.88;1.73;;;22.00;93.80;;;;;;5134593;27;20053;-77
2022/07/08 03:10:39;;;;;;;1.60;1.40;;;22.00;93.60;;;;;;5116183;27;20049;-79
2022/07/08 03:13:05;;;;;;;1.75;1.52;;;22.10;93.40;;;;;;5134416;27;20019;-77
2022/07/08 03:15:31;;;;;;;1.92;1.83;;;22.10;93.20;;;;;;5134449;27;20031;-77
2022/07/08 03:17:56;;;;;;;1.38;1.38;;;22.10;93.00;;;;;;5115804;27;20688;-78
2022/07/08 03:20:22;;;;;;;1.95;1.42;;;22.00;93.10;;;;;;5134355;27;20042;-77
2022/07/08 03:22:48;;;;;;;1.92;1.50;;;22.00;93.10;;;;;;5115726;27;20058;-77
2022/07/08 03:25:13;;;;;;;1.40;1.40;;;22.00;93.00;;;;;;5134246;27;20087;-77
2022/07/08 03:27:39;;;;;;;1.52;1.42;;;22.10;92.50;;;;;;5134245;27;20026;-78
2022/07/08 03:30:05;;;;;;;1.63;1.55;;;21.90;92.60;;;;;;5134164;27;20027;-78
2022/07/08 03:32:31;;;;;;;1.60;1.50;;;21.70;93.10;;;;;;5134210;27;20053;-78
2022/07/08 03:34:57;;;;;;;1.20;1.20;;;21.60;93.40;;;;;;5133964;27;20046;-77
2022/07/08 03:37:23;;;;;;;2.90;1.35;;;21.60;93.60;;;;;;5134114;27;20068;-77
2022/07/08 03:39:50;;;;;;;1.80;1.70;;;21.70;93.50;;;;;;5133776;27;20031;-78
2022/07/08 03:42:17;;;;;;;1.55;1.50;;;21.80;93.40;;;;;;5133650;27;20042;-78
2022/07/08 03:44:43;;;;;;;1.35;1.27;;;21.90;93.20;;;;;;5133661;27;20031;-78
2022/07/08 03:47:09;;;;;;;2.92;1.42;;;22.00;92.90;;;;;;5133689;27;20102;-77
2022/07/08 03:49:35;;;;;;;1.65;1.48;;;21.90;92.90;;;;;;5133889;28;20457;-77
2022/07/08 03:52:01;;;;;;;1.50;1.50;;;21.80;93.00;;;;;;5115372;28;20026;-77
2022/07/08 03:54:28;;;;;;;1.50;1.20;;;21.80;93.30;;;;;;5115516;28;20397;-77
2022/07/08 03:56:53;;;;;;;1.48;1.40;;;21.70;93.20;;;;;;5115359;28;20030;-77
2022/07/08 03:59:19;;;;;;;1.13;1.13;;;21.60;93.30;;;;;;5115426;28;20020;-78
2022/07/08 04:01:45;;;;;;;1.35;1.25;;;21.60;93.50;;;;;;5137420;27;20031;-78
2022/07/08 04:04:14;;;;;;;1.35;1.35;;;21.50;93.60;;;;;;5137896;27;20392;-78
2022/07/08 04:06:40;;;;;;;1.65;1.55;;;21.60;93.50;;;;;;5137949;27;20019;-78
2022/07/08 04:09:06;;;;;;;1.48;1.45;;;21.60;93.60;;;;;;5138029;27;20033;-78
2022/07/08 04:11:32;;;;;;;2.95;1.58;;;21.60;93.70;;;;;;5137886;27;20027;-77
2022/07/08 04:13:57;;;;;;;1.50;1.40;;;21.60;93.90;;;;;;5119279;27;20736;-78
2022/07/08 04:16:23;;;;;;;1.83;1.63;;;21.50;93.50;;;;;;5137888;27;20024;-78
2022/07/08 04:18:49;;;;;;;1.33;1.33;;;21.50;93.30;;;;;;5137824;27;20023;-78
2022/07/08 04:21:15;;;;;;;1.30;1.30;;;21.60;92.90;;;;;;5137919;27;20023;-78
2022/07/08 04:23:41;;;;;;;1.35;1.35;;;21.70;92.70;;;;;;5119115;27;20096;-77
2022/07/08 04:26:07;;;;;;;1.77;1.42;;;21.80;92.60;;;;;;5118968;27;20085;-78
2022/07/08 04:28:34;;;;;;;2.25;1.42;;;21.80;92.30;;;;;;5115275;28;20020;-78
2022/07/08 04:31:00;;;;;;;1.92;1.83;;;21.80;92.20;;;;;;5116884;28;20023;-78
2022/07/08 04:33:25;;;;;;;1.33;1.33;;;21.80;92.10;;;;;;5126541;27;20061;-78
2022/07/08 04:35:51;;;;;;;2.83;1.23;;;21.80;92.00;;;;;;5100734;28;20085;-77
2022/07/08 04:38:19;;;;;;;1.92;1.35;;;21.80;92.00;;;;;;5119522;27;20023;-77
2022/07/08 04:40:45;;;;;;;1.50;1.40;;;21.80;91.70;;;;;;5116631;28;20059;-78
2022/07/08 04:43:12;;;;;;;1.10;1.00;;;21.80;91.20;;;;;;5098410;28;20031;-78
2022/07/08 04:45:38;;;;;;;1.20;1.20;;;21.80;91.00;;;;;;5106940;28;20055;-77
2022/07/08 04:48:04;;;;;;;1.30;1.20;;;21.70;90.90;;;;;;5116537;28;20020;-77
2022/07/08 04:50:31;;;;;;;1.42;1.05;;;21.50;91.00;;;;;;5116457;28;20553;-78
2022/07/08 04:52:57;;;;;;;4.45;1.15;;;21.50;91.10;;;;;;5116304;28;20030;-77
2022/07/08 04:55:28;;;;;;;1.05;1.02;;;21.60;91.00;;;;;;5097991;28;20114;-78
2022/07/08 04:58:03;;;;;;;1.40;1.30;;;21.50;91.00;;;;;;5117852;27;20058;-78
2022/07/08 05:00:30;;;;;;;2.47;1.20;;;21.60;90.90;;;;;;5117741;27;20024;-77
2022/07/08 05:02:57;;;;;;;1.30;1.20;;;21.70;90.60;;;;;;5097953;28;20032;-77
2022/07/08 05:05:23;;;;;;;1.15;1.15;;;21.80;89.70;;;;;;5116422;28;20066;-77
2022/07/08 05:07:49;;;;;;;5.35;1.40;;;21.80;88.70;;;;;;5116317;28;20027;-77
2022/07/08 05:10:21;;;;;;;3.33;1.52;;;21.90;88.70;;;;;;5097901;28;20386;-77
2022/07/08 05:12:48;;;;;;;9.32;1.33;;;22.00;88.00;;;;;;5097053;28;20039;-77
2022/07/08 05:15:14;;;;;;;4.70;1.80;;;22.00;87.70;;;;;;5134876;27;20059;-77
2022/07/08 05:17:40;;;;;;;1.70;1.02;;;22.10;87.90;;;;;;5136674;27;20055;-77
2022/07/08 05:20:07;;;;;;;3.92;1.20;;;22.20;86.60;;;;;;5118122;27;20366;-78
2022/07/08 05:22:33;;;;;;;2.80;1.10;;;22.20;86.20;;;;;;5118180;27;20088;-78
2022/07/08 05:24:59;;;;;;;2.17;1.10;;;22.20;85.60;;;;;;5136505;27;20023;-78
2022/07/08 05:27:25;;;;;;;1.20;0.90;;;22.30;84.90;;;;;;5136421;27;20630;-78
2022/07/08 05:29:53;;;;;;;2.50;1.05;;;22.30;84.20;;;;;;5136596;27;20026;-78
2022/07/08 05:32:19;;;;;;;2.47;0.88;;;22.40;84.20;;;;;;5136278;27;20433;-78
2022/07/08 05:34:45;;;;;;;1.27;1.17;;;22.40;83.20;;;;;;5136022;27;20057;-78
2022/07/08 05:37:12;;;;;;;0.80;0.75;;;22.50;83.00;;;;;;5136095;27;20024;-78
2022/07/08 05:39:41;;;;;;;1.70;1.00;;;22.50;83.10;;;;;;5136121;27;20102;-78
2022/07/08 05:42:10;;;;;;;1.25;1.10;;;22.70;82.80;;;;;;5135767;27;20620;-77
2022/07/08 05:44:37;;;;;;;1.48;1.00;;;22.70;81.80;;;;;;5133401;27;20116;-78
2022/07/08 05:47:04;;;;;;;0.80;0.80;;;22.80;81.70;;;;;;5096954;28;20023;-77
2022/07/08 05:49:30;;;;;;;2.00;0.93;;;22.90;82.10;;;;;;5115191;28;20027;-77
2022/07/08 05:51:57;;;;;;;2.28;0.80;;;23.00;81.70;;;;;;5115258;28;20024;-77
2022/07/08 05:54:23;;;;;;;4.10;1.38;;;23.10;81.10;;;;;;5115277;28;20076;-77
2022/07/08 05:56:49;;;;;;;1.15;0.82;;;23.20;81.00;;;;;;5115264;28;20039;-78
2022/07/08 05:59:14;;;;;;;1.85;1.27;;;23.30;80.10;;;;;;5097044;28;20024;-78
2022/07/08 06:01:40;;;;;;;1.00;1.00;;;23.30;79.50;;;;;;5096733;28;20475;-78
2022/07/08 06:04:06;;;;;;;4.38;1.00;;;23.40;80.10;;;;;;5096741;28;20034;-78
2022/07/08 06:06:32;;;;;;;0.95;0.90;;;23.50;80.10;;;;;;5096851;28;20077;-77
2022/07/08 06:08:58;;;;;;;1.77;0.82;;;23.70;78.90;;;;;;5115053;28;20019;-78
2022/07/08 06:11:23;;;;;;;1.45;1.10;;;23.70;78.00;;;;;;5096638;28;20018;-78
2022/07/08 06:13:49;;;;;;;0.93;0.90;;;23.80;78.10;;;;;;5121521;27;20111;-78
2022/07/08 06:16:15;;;;;;;1.10;1.10;;;23.90;79.50;;;;;;5135212;27;20042;-78
2022/07/08 06:18:41;;;;;;;2.53;0.80;;;23.90;80.70;;;;;;5116998;27;20046;-78
2022/07/08 06:21:07;;;;;;;1.15;1.05;;;24.00;79.80;;;;;;5135279;27;20094;-78
2022/07/08 06:23:34;;;;;;;1.85;1.00;;;24.10;78.70;;;;;;5134304;27;20386;-78
2022/07/08 06:26:00;;;;;;;1.13;1.08;;;24.20;78.40;;;;;;5134894;27;20015;-78
2022/07/08 06:28:26;;;;;;;0.98;0.98;;;24.20;77.20;;;;;;5135149;27;20023;-78
2022/07/08 06:30:52;;;;;;;1.23;1.00;;;24.30;77.60;;;;;;5135019;27;20044;-78
2022/07/08 06:33:18;;;;;;;1.13;0.95;;;24.40;76.30;;;;;;5134943;27;20023;-78
2022/07/08 06:35:44;;;;;;;1.60;0.90;;;24.40;75.60;;;;;;5135025;27;20053;-78
2022/07/08 06:38:10;;;;;;;3.60;1.30;;;24.50;75.50;;;;;;5135041;27;20027;-78
2022/07/08 06:40:36;;;;;;;1.42;1.05;;;24.70;76.00;;;;;;5134717;27;20096;-78
2022/07/08 06:43:01;;;;;;;1.15;1.05;;;24.70;76.50;;;;;;5134828;27;20060;-78
2022/07/08 06:45:31;;;;;;;0.70;0.70;;;24.80;76.70;;;;;;5134810;27;20091;-79
2022/07/08 06:48:01;;;;;;;1.58;0.80;;;24.80;75.30;;;;;;5134800;27;20504;-78
2022/07/08 06:50:27;;;;;;;3.00;0.85;;;24.90;72.60;;;;;;5116373;27;20019;-78
2022/07/08 06:52:53;;;;;;;0.93;0.80;;;24.90;70.80;;;;;;5134550;27;20015;-75
2022/07/08 06:55:19;;;;;;;3.60;0.70;;;25.00;68.40;;;;;;5134604;27;20385;-75
2022/07/08 06:57:45;;;;;;;1.20;0.80;;;25.00;69.00;;;;;;5134564;27;20076;-75
2022/07/08 07:00:14;;;;;;;0.80;0.80;;;25.10;68.10;;;;;;5134489;27;20050;-78
2022/07/08 07:02:40;;;;;;;3.75;1.52;;;25.20;67.70;;;;;;5116123;27;20027;-75
2022/07/08 07:05:07;;;;;;;8.13;1.98;;;25.30;73.00;;;;;;5115787;27;20470;-75
2022/07/08 07:07:33;;;;;;;2.58;1.67;;;25.30;78.20;;;;;;5115743;27;20030;-75
2022/07/08 07:09:58;;;;;;;2.00;1.77;;;25.40;81.20;;;;;;5134280;27;20019;-75
2022/07/08 07:12:24;;;;;;;5.05;1.70;;;25.50;80.50;;;;;;5115734;27;20027;-75
2022/07/08 07:14:51;;;;;;;1.65;1.50;;;25.50;79.70;;;;;;5134219;27;20106;-75
2022/07/08 07:17:21;;;;;;;4.45;1.25;;;25.50;78.30;;;;;;5115644;27;20023;-75
2022/07/08 07:19:47;;;;;;;0.85;0.80;;;25.50;76.60;;;;;;5115661;27;20086;-75
2022/07/08 07:22:14;;;;;;;2.45;0.50;;;25.50;69.10;;;;;;5133976;27;20106;-75
2022/07/08 07:24:40;;;;;;;0.50;0.50;;;25.60;59.10;;;;;;5132619;27;20023;-74
2022/07/08 07:27:06;;;;;;;1.00;0.85;;;25.60;58.90;;;;;;5104042;27;20392;-76
2022/07/08 07:29:33;;;;;;;0.60;0.60;;;25.70;62.10;;;;;;5127910;27;20102;-75
2022/07/08 07:31:59;;;;;;;2.58;0.80;;;25.70;58.20;;;;;;5111645;27;20027;-74
2022/07/08 07:34:25;;;;;;;1.45;0.80;;;25.80;62.50;;;;;;5129575;27;20030;-75
2022/07/08 07:36:50;;;;;;;4.55;1.25;;;25.80;64.70;;;;;;5130363;27;20355;-75
2022/07/08 07:39:16;;;;;;;1.75;1.00;;;25.80;66.10;;;;;;5130549;27;20038;-75
2022/07/08 07:41:42;;;;;;;0.80;0.75;;;25.90;65.40;;;;;;5094455;28;20667;-75
2022/07/08 07:44:08;;;;;;;1.80;0.90;;;26.10;66.30;;;;;;5117451;27;20552;-75
2022/07/08 07:46:34;;;;;;;2.20;0.90;;;26.20;64.40;;;;;;5123249;27;20030;-75
2022/07/08 07:49:00;;;;;;;3.78;1.40;;;26.20;63.50;;;;;;5107649;28;20026;-75
2022/07/08 07:51:26;;;;;;;0.98;0.98;;;26.20;64.00;;;;;;5108588;28;20608;-75
2022/07/08 07:53:52;;;;;;;1.30;1.20;;;26.30;66.10;;;;;;5126349;28;20034;-76
2022/07/08 07:56:19;;;;;;;1.42;1.02;;;26.30;64.50;;;;;;5109111;28;20054;-75
2022/07/08 07:58:45;;;;;;;1.20;1.20;;;26.40;60.60;;;;;;5129339;28;20357;-75
2022/07/08 08:01:10;;;;;;;0.90;0.90;;;26.30;61.50;;;;;;5129621;28;20023;-75
2022/07/08 08:03:36;;;;;;;1.05;0.90;;;26.40;60.70;;;;;;5128266;28;20054;-76
2022/07/08 08:06:03;;;;;;;1.65;1.00;;;26.40;61.30;;;;;;5110518;28;20023;-74
2022/07/08 08:08:31;;;;;;;1.38;0.75;;;26.40;61.60;;;;;;5128663;28;20020;-74
2022/07/08 08:10:58;;;;;;;2.28;1.20;;;26.40;62.20;;;;;;5128507;28;20023;-74
2022/07/08 08:13:24;;;;;;;1.17;1.17;;;26.50;66.20;;;;;;5129946;28;20023;-75
2022/07/08 08:15:50;;;;;;;1.48;1.45;;;26.50;67.90;;;;;;5128942;28;20458;-74
2022/07/08 08:18:16;;;;;;;1.27;1.10;;;26.50;66.50;;;;;;5129893;28;20026;-75
2022/07/08 08:20:42;;;;;;;1.63;1.00;;;26.60;65.30;;;;;;5129869;28;20027;-75
2022/07/08 08:23:08;;;;;;;1.35;1.25;;;26.70;63.20;;;;;;5127565;28;20023;-75
2022/07/08 08:25:34;;;;;;;1.10;1.10;;;26.60;63.40;;;;;;5119183;28;20031;-75
2022/07/08 08:28:00;;;;;;;1.20;1.20;;;26.60;63.80;;;;;;5099911;28;20019;-74
2022/07/08 08:30:29;;;;;;;0.98;0.90;;;26.60;65.00;;;;;;5129096;28;20080;-76
2022/07/08 08:32:55;;;;;;;1.38;1.27;;;26.60;61.50;;;;;;5112789;28;20057;-75
2022/07/08 08:35:21;;;;;;;1.50;1.20;;;26.60;61.60;;;;;;5133473;28;20027;-75
2022/07/08 08:37:47;;;;;;;1.75;1.08;;;26.60;62.50;;;;;;5132859;28;20019;-79
2022/07/08 08:40:13;;;;;;;0.88;0.88;;;26.70;63.00;;;;;;5131979;28;20160;-78
2022/07/08 08:42:41;;;;;;;1.00;0.90;;;26.80;62.30;;;;;;5113816;28;20443;-78
2022/07/08 08:45:07;;;;;;;1.10;1.10;;;26.90;59.20;;;;;;5132244;28;20050;-80
2022/07/08 08:47:37;;;;;;;0.65;0.65;;;27.10;60.60;;;;;;5133929;27;20018;-79
2022/07/08 08:52:52;;;;;;;1.98;1.88;;;27.10;56.70;;;;;;5137019;27;20030;-79
2022/07/08 08:55:30;;;;;;;2.25;0.90;;;27.10;57.70;;;;;;5137250;27;20068;-78
2022/07/08 08:57:58;;;;;;;1.27;0.70;;;27.10;57.00;;;;;;5137187;27;20084;-77
2022/07/08 09:00:25;;;;;;;2.45;1.00;;;27.10;56.50;;;;;;5118621;27;20478;-77
2022/07/08 09:02:54;;;;;;;0.95;0.95;;;27.10;56.40;;;;;;5136792;27;20058;-77
2022/07/08 09:05:21;;;;;;;0.60;0.60;;;27.20;56.50;;;;;;5136812;27;20023;-77
2022/07/08 09:07:48;;;;;;;1.55;0.77;;;27.30;55.50;;;;;;5136771;27;20050;-77
2022/07/08 09:10:15;;;;;;;2.58;0.85;;;27.30;56.90;;;;;;5117735;27;20022;-77
2022/07/08 09:13:05;;;;;;;0.75;0.70;;;27.40;57.00;;;;;;5136122;27;20027;-77
2022/07/08 09:15:36;;;;;;;0.95;0.95;;;27.40;55.20;;;;;;5121119;27;20044;-77
2022/07/08 09:18:10;;;;;;;1.95;0.95;;;27.50;55.10;;;;;;5117215;27;20019;-77
2022/07/08 09:20:40;;;;;;;0.73;0.68;;;27.50;54.10;;;;;;5117017;27;20397;-77
2022/07/08 09:23:15;;;;;;;1.80;0.80;;;27.50;53.00;;;;;;5135585;27;20107;-77
2022/07/08 09:25:45;;;;;;;3.75;0.80;;;27.60;53.10;;;;;;5135837;27;20027;-77
2022/07/08 09:28:11;;;;;;;1.75;0.80;;;27.50;52.20;;;;;;5117997;27;20015;-77
2022/07/08 09:30:41;;;;;;;0.82;0.75;;;27.50;52.50;;;;;;5136466;27;20076;-77
2022/07/08 09:33:10;;;;;;;1.85;0.75;;;27.50;53.00;;;;;;5117929;27;20027;-78
2022/07/08 09:35:38;;;;;;;0.77;0.77;;;27.60;53.30;;;;;;5136400;27;20023;-77
2022/07/08 09:38:08;;;;;;;0.85;0.85;;;27.80;54.00;;;;;;5136452;27;20028;-77
2022/07/08 09:40:35;;;;;;;0.80;0.80;;;28.00;55.90;;;;;;5136029;27;20497;-77
2022/07/08 09:43:02;;;;;;;1.63;0.90;;;28.00;55.50;;;;;;5136160;27;20035;-77
2022/07/08 09:45:33;;;;;;;1.00;1.00;;;28.10;53.40;;;;;;5135888;27;20466;-77
2022/07/08 09:48:09;;;;;;;0.95;0.70;;;28.10;53.20;;;;;;5135420;27;20023;-77
2022/07/08 09:50:43;;;;;;;0.65;0.65;;;28.30;54.40;;;;;;5136017;27;20007;-77
2022/07/08 09:53:22;;;;;;;2.08;1.00;;;28.20;54.50;;;;;;5117205;27;20027;-78
2022/07/08 09:55:52;;;;;;;1.30;0.80;;;28.20;52.60;;;;;;5136067;27;20015;-78
2022/07/08 09:58:20;;;;;;;0.85;0.85;;;28.20;52.90;;;;;;5117201;27;20432;-77
2022/07/08 10:00:48;;;;;;;1.25;1.20;;;28.20;55.10;;;;;;5117537;27;20440;-77
2022/07/08 10:03:14;;;;;;;0.90;0.90;;;28.40;55.40;;;;;;5135629;27;20083;-78
2022/07/08 10:05:41;;;;;;;1.10;1.10;;;28.60;54.70;;;;;;5135679;27;20482;-78
2022/07/08 10:08:08;;;;;;;2.80;1.02;;;28.70;55.70;;;;;;5135587;27;20026;-78
2022/07/08 10:10:35;;;;;;;1.63;1.35;;;28.70;53.40;;;;;;5135645;27;20019;-78
2022/07/08 10:13:01;;;;;;;1.45;1.35;;;28.70;54.00;;;;;;5117093;27;20019;-78
2022/07/08 10:15:30;;;;;;;1.00;0.90;;;28.80;53.90;;;;;;5115042;28;20134;-78
2022/07/08 10:18:18;;;;;;;0.77;0.77;;;28.80;52.20;;;;;;5114865;28;20090;-77
2022/07/08 10:20:48;;;;;;;0.80;0.80;;;28.70;53.10;;;;;;5114291;28;20036;-77
2022/07/08 10:23:24;;;;;;;1.95;0.73;;;28.80;52.80;;;;;;5096443;28;20114;-78
2022/07/08 10:25:51;;;;;;;0.82;0.82;;;28.90;53.30;;;;;;5114663;28;20054;-77
2022/07/08 10:28:17;;;;;;;0.85;0.85;;;29.00;53.50;;;;;;5114793;28;20100;-77
2022/07/08 10:30:51;;;;;;;0.73;0.73;;;29.10;54.20;;;;;;5114674;28;20462;-77
2022/07/08 10:33:28;;;;;;;1.80;0.80;;;29.20;50.90;;;;;;5114436;28;20031;-77
2022/07/08 10:36:01;;;;;;;0.88;0.88;;;29.40;52.50;;;;;;5114635;28;20028;-78
2022/07/08 10:38:37;;;;;;;4.18;0.88;;;29.40;51.60;;;;;;5096214;28;20015;-77
2022/07/08 10:41:10;;;;;;;0.60;0.60;;;29.60;51.20;;;;;;5114362;28;20050;-76
2022/07/08 10:43:38;;;;;;;0.80;0.77;;;29.70;51.40;;;;;;5096139;28;20031;-77
2022/07/08 10:46:12;;;;;;;0.68;0.60;;;29.70;51.80;;;;;;5096023;28;20351;-77
2022/07/08 10:48:41;;;;;;;2.88;0.90;;;29.60;50.30;;;;;;5096036;28;20031;-77
2022/07/08 10:51:19;;;;;;;2.67;0.70;;;29.50;49.60;;;;;;5114043;28;20024;-77
2022/07/08 10:53:51;;;;;;;0.82;0.70;;;29.70;50.70;;;;;;5114160;28;20104;-77
2022/07/08 10:56:35;;;;;;;;;;;29.80;48.10;;;;;;5114698;28;20463;-77
2022/07/08 10:59:28;;;;;;;2.20;1.10;;;29.90;48.20;;;;;;5095877;28;19904;-77
2022/07/08 11:02:06;;;;;;;2.60;0.90;;;29.90;48.00;;;;;;5113915;28;20020;-77
2022/07/08 11:04:35;;;;;;;1.40;0.70;;;29.80;49.20;;;;;;5114008;28;20031;-78
2022/07/08 11:07:28;;;;;;;0.65;0.65;;;29.90;48.50;;;;;;5095874;28;20031;-77
2022/07/08 11:10:08;;;;;;;1.15;0.60;;;30.00;47.20;;;;;;5113376;28;20479;-78
2022/07/08 11:12:54;;;;;;;0.57;0.57;;;30.10;46.30;;;;;;5095492;28;20027;-78
2022/07/08 11:15:20;;;;;;;0.80;0.80;;;30.00;46.00;;;;;;5114408;27;20059;-77
2022/07/08 11:17:48;;;;;;;3.75;0.70;;;29.90;45.50;;;;;;5115934;27;20390;-77
2022/07/08 11:20:19;;;;;;;0.80;0.80;;;29.80;45.30;;;;;;5134310;27;20019;-77
2022/07/08 11:22:47;;;;;;;1.40;0.77;;;29.60;46.30;;;;;;5134176;27;20075;-77
2022/07/08 11:25:15;;;;;;;0.95;0.70;;;29.50;48.30;;;;;;5134147;27;20666;-77
2022/07/08 11:27:41;;;;;;;1.25;0.90;;;29.60;48.70;;;;;;5134288;27;20539;-77
2022/07/08 11:30:13;;;;;;;0.88;0.82;;;29.70;49.10;;;;;;5134304;27;20416;-77
2022/07/08 11:32:40;;;;;;;1.85;0.70;;;29.80;48.20;;;;;;5134019;27;20075;-78
2022/07/08 11:35:06;;;;;;;1.23;0.77;;;30.00;46.60;;;;;;5115623;27;20023;-78
2022/07/08 11:37:32;;;;;;;2.92;0.80;;;30.30;47.80;;;;;;5133971;27;20034;-78
2022/07/08 11:39:59;;;;;;;0.70;0.70;;;30.50;45.50;;;;;;5133971;27;20022;-77
2022/07/08 11:42:25;;;;;;;1.00;1.00;;;30.70;46.20;;;;;;5133746;27;20517;-77
2022/07/08 11:44:52;;;;;;;1.48;0.98;;;30.90;46.00;;;;;;5133488;27;20103;-78
2022/07/08 11:47:20;;;;;;;1.10;0.73;;;30.90;44.50;;;;;;5113706;28;20027;-77
2022/07/08 11:49:48;;;;;;;0.77;0.77;;;31.10;47.90;;;;;;5133173;27;20033;-78
2022/07/08 11:52:21;;;;;;;0.32;0.32;;;31.20;45.50;;;;;;5115433;28;20045;-78
2022/07/08 11:54:48;;;;;;;0.80;0.80;;;31.30;44.30;;;;;;5133903;28;20424;-76
2022/07/08 11:57:17;;;;;;;2.00;0.63;;;31.20;43.10;;;;;;5133498;28;20029;-77
2022/07/08 11:59:47;;;;;;;1.75;0.50;;;31.20;42.90;;;;;;5133831;28;20019;-77
2022/07/08 12:02:18;;;;;;;2.17;0.68;;;31.40;40.70;;;;;;5133751;28;20542;-78
2022/07/08 12:04:45;;;;;;;1.00;1.00;;;31.40;40.90;;;;;;5133735;28;20531;-77
2022/07/08 12:07:24;;;;;;;1.23;1.13;;;31.60;43.50;;;;;;5115348;28;20294;-77
2022/07/08 12:09:58;;;;;;;1.02;0.80;;;31.80;45.00;;;;;;5133751;28;20015;-77
2022/07/08 12:12:26;;;;;;;3.58;0.50;;;31.90;44.10;;;;;;5133744;28;20023;-77
2022/07/08 12:14:52;;;;;;;0.68;0.68;;;31.90;43.20;;;;;;5133721;28;20366;-77
2022/07/08 12:17:26;;;;;;;0.60;0.60;;;31.80;44.60;;;;;;5133857;28;20114;-77
2022/07/08 12:19:53;;;;;;;0.70;0.70;;;32.00;45.70;;;;;;5133662;28;20103;-77
2022/07/08 12:22:44;;;;;;;0.77;0.60;;;31.80;41.50;;;;;;5117772;27;20088;-77
2022/07/08 12:25:14;;;;;;;1.85;0.80;;;31.70;42.50;;;;;;5137628;27;20054;-76
2022/07/08 12:27:44;;;;;;;1.30;0.60;;;31.60;43.40;;;;;;5119319;27;20499;-77
2022/07/08 12:30:10;;;;;;;0.70;0.70;;;31.70;43.00;;;;;;5137786;27;20106;-77
2022/07/08 12:32:41;;;;;;;1.05;0.77;;;31.90;43.80;;;;;;5137570;27;20494;-77
2022/07/08 12:35:09;;;;;;;1.98;0.82;;;32.10;44.60;;;;;;5137609;27;20031;-76
2022/07/08 12:37:34;;;;;;;0.75;0.75;;;32.30;45.80;;;;;;5137462;27;20020;-76
2022/07/08 12:40:16;;;;;;;0.68;0.68;;;32.40;44.30;;;;;;5137397;27;20073;-77
2022/07/08 12:42:43;;;;;;;1.75;1.58;;;32.50;43.00;;;;;;5137244;27;20118;-77
2022/07/08 12:45:16;;;;;;;1.48;0.88;;;32.30;43.40;;;;;;5118748;27;20405;-76
2022/07/08 12:47:46;;;;;;;0.90;0.90;;;32.30;44.60;;;;;;5137581;27;20026;-77
2022/07/08 12:50:11;;;;;;;3.13;1.15;;;32.60;45.80;;;;;;5137117;27;20023;-76
2022/07/08 12:52:37;;;;;;;1.00;1.00;;;32.50;44.10;;;;;;5136919;27;20023;-77
2022/07/08 12:55:04;;;;;;;1.13;1.08;;;32.50;45.40;;;;;;5136822;27;20027;-76
2022/07/08 12:57:29;;;;;;;2.72;0.98;;;32.60;44.40;;;;;;5118602;27;20031;-77